Time;durP1;ratioP1;P1;durP2;ratioP2;P2;SDS_P1;SDS_P2;PMS_P1;PMS_P2;Temp;Humidity;BMP_temperature;BMP_pressure;BME280_temperature;BME280_humidity;BME280_pressure;Samples;Min_cycle;Max_cycle;Signal;HPM_P1;HPM_P2
2023/06/27 00:01:39;;;;;;;7.25;3.30;;;;;;;;;;6206916;23;20016;-86
2023/06/27 00:04:05;;;;;;;5.53;2.40;;;;;;;;;;6181183;23;20070;-87
2023/06/27 00:06:41;;;;;;;9.98;3.65;;;;;;;;;;6180253;23;20008;-86
2023/06/27 00:09:15;;;;;;;12.25;4.10;;;;;;;;;;6206070;23;20120;-86
2023/06/27 00:11:41;;;;;;;7.68;3.15;;;;;;;;;;6205145;23;20008;-86
2023/06/27 00:14:13;;;;;;;4.60;2.78;;;;;;;;;;6209240;23;20335;-87
2023/06/27 00:16:40;;;;;;;8.88;3.35;;;;;;;;;;6208875;23;20009;-86
2023/06/27 00:19:06;;;;;;;13.35;3.90;;;;;;;;;;6210125;23;20008;-86
2023/06/27 00:21:37;;;;;;;5.85;2.88;;;;;;;;;;6206898;23;20261;-86
2023/06/27 00:24:04;;;;;;;11.45;3.58;;;;;;;;;;6207077;23;20358;-86
2023/06/27 00:26:31;;;;;;;10.02;3.30;;;;;;;;;;6182755;23;20414;-87
2023/06/27 00:28:58;;;;;;;9.45;3.20;;;;;;;;;;6210056;23;20001;-86
2023/06/27 00:31:27;;;;;;;5.88;3.40;;;;;;;;;;6181724;23;20334;-86
2023/06/27 00:33:54;;;;;;;5.53;2.75;;;;;;;;;;6184149;23;20028;-87
2023/06/27 00:36:20;;;;;;;8.43;3.25;;;;;;;;;;6187210;23;20034;-86
2023/06/27 00:38:47;;;;;;;21.33;3.70;;;;;;;;;;6185866;23;20012;-86
2023/06/27 00:41:14;;;;;;;11.32;3.58;;;;;;;;;;6210174;23;20103;-86
2023/06/27 00:43:41;;;;;;;7.85;2.90;;;;;;;;;;6185437;23;20504;-86
2023/06/27 00:46:07;;;;;;;14.85;3.90;;;;;;;;;;6211217;23;20426;-86
2023/06/27 00:48:34;;;;;;;6.43;2.80;;;;;;;;;;6185703;23;20012;-85
2023/06/27 00:51:04;;;;;;;10.60;3.45;;;;;;;;;;6185863;23;20102;-85
2023/06/27 00:53:31;;;;;;;9.35;3.38;;;;;;;;;;6211102;23;20016;-86
2023/06/27 00:55:57;;;;;;;6.45;2.95;;;;;;;;;;6185176;23;20023;-87
2023/06/27 00:58:24;;;;;;;10.10;3.22;;;;;;;;;;6212442;23;20086;-88
2023/06/27 01:00:51;;;;;;;8.70;3.60;;;;;;;;;;6186836;23;20019;-86
2023/06/27 01:06:15;;;;;;;15.82;3.67;;;;;;;;;;6168990;23;20100;-87
2023/06/27 01:08:51;;;;;;;7.47;3.35;;;;;;;;;;6212430;23;20000;-86
2023/06/27 01:11:23;;;;;;;7.57;3.20;;;;;;;;;;6211785;23;20004;-87
2023/06/27 01:13:51;;;;;;;11.40;3.13;;;;;;;;;;6207702;23;20526;-87
2023/06/27 01:16:19;;;;;;;10.85;3.63;;;;;;;;;;6210152;23;20015;-88
2023/06/27 01:18:54;;;;;;;5.50;2.72;;;;;;;;;;6210911;23;20465;-88
2023/06/27 01:21:21;;;;;;;7.07;2.88;;;;;;;;;;6187960;23;20358;-88
2023/06/27 01:23:53;;;;;;;13.70;3.10;;;;;;;;;;6185872;23;20378;-88
2023/06/27 01:26:19;;;;;;;7.60;3.10;;;;;;;;;;6211313;23;20454;-89
2023/06/27 01:28:46;;;;;;;10.32;3.00;;;;;;;;;;6188251;23;20060;-90
2023/06/27 01:31:31;;;;;;;6.97;2.53;;;;;;;;;;6187827;23;20049;-90
2023/06/27 01:34:03;;;;;;;10.05;3.45;;;;;;;;;;6212613;22;20065;-90
2023/06/27 01:36:32;;;;;;;8.90;2.78;;;;;;;;;;6213654;23;20404;-89
2023/06/27 01:39:15;;;;;;;11.98;3.40;;;;;;;;;;6212656;23;20008;-90
2023/06/27 01:41:43;;;;;;;7.95;2.75;;;;;;;;;;6212668;23;20008;-90
2023/06/27 01:44:12;;;;;;;5.65;2.42;;;;;;;;;;6212310;23;20004;-92
2023/06/27 01:46:39;;;;;;;3.88;2.58;;;;;;;;;;6211700;23;20341;-91
2023/06/27 01:49:05;;;;;;;8.02;3.10;;;;;;;;;;6187234;23;20283;-91
2023/06/27 01:51:32;;;;;;;6.78;2.53;;;;;;;;;;6214548;23;20030;-91
2023/06/27 01:53:59;;;;;;;8.15;2.50;;;;;;;;;;6211910;23;20012;-89
2023/06/27 01:56:27;;;;;;;6.32;2.60;;;;;;;;;;6213060;23;20008;-90
2023/06/27 01:58:53;;;;;;;10.60;2.97;;;;;;;;;;6212777;23;20019;-91
2023/06/27 02:01:19;;;;;;;14.40;2.97;;;;;;;;;;6187574;23;20012;-91
2023/06/27 02:03:46;;;;;;;8.38;2.90;;;;;;;;;;6186771;23;20012;-89
2023/06/27 02:06:15;;;;;;;12.27;2.97;;;;;;;;;;6239609;23;20012;-89
2023/06/27 02:08:41;;;;;;;5.63;3.00;;;;;;;;;;6188525;23;20012;-89
2023/06/27 02:11:11;;;;;;;7.47;2.58;;;;;;;;;;6212388;23;20111;-90
2023/06/27 02:13:38;;;;;;;8.68;2.90;;;;;;;;;;6212273;23;20035;-89
2023/06/27 02:16:04;;;;;;;8.20;2.70;;;;;;;;;;6211920;23;20012;-89
2023/06/27 02:18:31;;;;;;;6.22;2.47;;;;;;;;;;6212520;23;20008;-88
2023/06/27 02:21:06;;;;;;;10.68;3.47;;;;;;;;;;6185475;23;20008;-88
2023/06/27 02:23:33;;;;;;;;;;;;;;;;;;6212469;23;20016;-89
2023/06/27 02:25:59;;;;;;;9.88;2.53;;;;;;;;;;6213927;23;19907;-89
2023/06/27 02:28:25;;;;;;;14.50;2.92;;;;;;;;;;6212430;23;20058;-89
2023/06/27 02:30:52;;;;;;;10.65;2.65;;;;;;;;;;6213199;23;20760;-88
2023/06/27 02:33:21;;;;;;;11.20;2.50;;;;;;;;;;6187347;23;20185;-89
2023/06/27 02:35:48;;;;;;;8.48;2.33;;;;;;;;;;6188761;23;20031;-89
2023/06/27 02:38:14;;;;;;;6.45;2.08;;;;;;;;;;6187549;23;20012;-89
2023/06/27 02:40:47;;;;;;;7.18;2.42;;;;;;;;;;6186995;23;20070;-89
2023/06/27 02:43:14;;;;;;;9.18;3.10;;;;;;;;;;6187891;23;20012;-89
2023/06/27 02:45:41;;;;;;;6.78;2.55;;;;;;;;;;6188210;23;20427;-88
2023/06/27 02:48:07;;;;;;;4.68;2.35;;;;;;;;;;6212116;23;20011;-89
2023/06/27 02:50:56;;;;;;;5.95;2.50;;;;;;;;;;6213461;23;20016;-88
2023/06/27 02:53:20;;;;;;;5.97;2.75;;;;;;;;;;6238155;23;20070;-89
2023/06/27 02:55:50;;;;;;;6.15;2.67;;;;;;;;;;6184655;23;20127;-88
2023/06/27 02:58:17;;;;;;;7.32;2.45;;;;;;;;;;6188431;23;20482;-89
2023/06/27 03:00:50;;;;;;;6.43;2.42;;;;;;;;;;6187015;23;20353;-89
2023/06/27 03:03:17;;;;;;;7.03;2.88;;;;;;;;;;6187944;23;20024;-89
2023/06/27 03:05:43;;;;;;;10.02;2.88;;;;;;;;;;6187074;23;20016;-89
2023/06/27 03:08:09;;;;;;;7.68;2.75;;;;;;;;;;6187286;23;20074;-89
2023/06/27 03:10:35;;;;;;;15.90;3.35;;;;;;;;;;6187801;23;20042;-89
2023/06/27 03:13:02;;;;;;;8.93;2.55;;;;;;;;;;6211361;23;20012;-88
2023/06/27 03:15:28;;;;;;;7.80;2.45;;;;;;;;;;6185741;23;20004;-89
2023/06/27 03:17:57;;;;;;;9.18;3.00;;;;;;;;;;6185709;23;20019;-89
2023/06/27 03:20:23;;;;;;;6.75;2.60;;;;;;;;;;6211767;23;20009;-88
2023/06/27 03:23:13;;;;;;;7.03;2.83;;;;;;;;;;6185791;23;20854;-89
2023/06/27 03:25:39;;;;;;;11.52;3.08;;;;;;;;;;6211934;22;20008;-89
2023/06/27 03:28:05;;;;;;;9.23;2.72;;;;;;;;;;6187289;23;20375;-89
2023/06/27 03:30:32;;;;;;;5.88;2.47;;;;;;;;;;6186490;23;20525;-89
2023/06/27 03:32:59;;;;;;;4.10;2.40;;;;;;;;;;6184290;23;20019;-89
2023/06/27 03:35:38;;;;;;;6.20;2.38;;;;;;;;;;6207503;22;20345;-89
2023/06/27 03:38:05;;;;;;;4.43;2.10;;;;;;;;;;6207439;23;20043;-88
2023/06/27 03:40:40;;;;;;;9.57;2.40;;;;;;;;;;6204125;23;20012;-89
2023/06/27 03:43:06;;;;;;;8.13;3.10;;;;;;;;;;6182749;23;20013;-88
2023/06/27 03:45:35;;;;;;;5.35;2.45;;;;;;;;;;6205544;23;20205;-89
2023/06/27 03:48:01;;;;;;;8.15;2.33;;;;;;;;;;6181056;23;20012;-89
2023/06/27 03:50:32;;;;;;;10.85;2.58;;;;;;;;;;6181560;23;20019;-89
2023/06/27 03:53:00;;;;;;;7.32;2.00;;;;;;;;;;6205823;23;20019;-90
2023/06/27 03:55:27;;;;;;;9.32;3.45;;;;;;;;;;6205453;23;20012;-89
2023/06/27 03:57:56;;;;;;;4.55;2.92;;;;;;;;;;6181155;23;20017;-89
2023/06/27 04:00:22;;;;;;;7.05;2.17;;;;;;;;;;6206910;23;20245;-90
2023/06/27 04:02:53;;;;;;;9.20;2.15;;;;;;;;;;6181745;23;20047;-91
2023/06/27 04:05:20;;;;;;;8.20;2.53;;;;;;;;;;6182862;23;20016;-91
2023/06/27 04:07:49;;;;;;;7.95;2.47;;;;;;;;;;6183346;23;20042;-90
2023/06/27 04:10:15;;;;;;;8.10;2.83;;;;;;;;;;6207742;23;20008;-89
2023/06/27 04:12:42;;;;;;;15.02;3.08;;;;;;;;;;6207006;23;20008;-90
2023/06/27 04:15:09;;;;;;;5.55;2.30;;;;;;;;;;6181882;23;20012;-90
2023/06/27 04:17:35;;;;;;;6.80;2.78;;;;;;;;;;6182630;23;20017;-90
2023/06/27 04:20:02;;;;;;;8.40;2.30;;;;;;;;;;6182105;23;20013;-90
2023/06/27 04:22:37;;;;;;;6.88;2.30;;;;;;;;;;6182815;23;20066;-90
2023/06/27 04:25:14;;;;;;;;;;;;;;;;;;;;;
2023/06/27 04:27:40;;;;;;;5.95;2.30;;;;;;;;;;6207951;23;20087;-90
2023/06/27 04:30:07;;;;;;;14.88;2.40;;;;;;;;;;6182916;23;20401;-90
2023/06/27 04:32:33;;;;;;;3.58;1.92;;;;;;;;;;6182809;23;20004;-90
2023/06/27 04:35:00;;;;;;;5.07;1.90;;;;;;;;;;6207451;22;20438;-90
2023/06/27 04:37:30;;;;;;;10.05;2.00;;;;;;;;;;6182180;23;20450;-90
2023/06/27 04:39:56;;;;;;;9.52;2.47;;;;;;;;;;6175484;23;20438;-90
2023/06/27 04:42:29;;;;;;;8.00;2.75;;;;;;;;;;6182065;23;20079;-89
2023/06/27 04:44:55;;;;;;;8.90;2.40;;;;;;;;;;6183817;23;20479;-89
2023/06/27 04:47:23;;;;;;;2.97;2.08;;;;;;;;;;6181113;23;20009;-89
2023/06/27 04:49:49;;;;;;;7.30;2.72;;;;;;;;;;6208296;23;20005;-89
2023/06/27 04:52:19;;;;;;;6.60;2.28;;;;;;;;;;6207024;23;20431;-89
2023/06/27 04:54:49;;;;;;;12.65;2.40;;;;;;;;;;6207070;23;20064;-89
2023/06/27 04:57:22;;;;;;;7.68;2.08;;;;;;;;;;6183544;23;20019;-89
2023/06/27 04:59:52;;;;;;;6.97;2.75;;;;;;;;;;6214659;23;20451;-92
2023/06/27 05:02:20;;;;;;;8.23;2.33;;;;;;;;;;6188174;23;20381;-89
2023/06/27 05:04:49;;;;;;;12.43;2.45;;;;;;;;;;6187903;23;20036;-88
2023/06/27 05:07:20;;;;;;;6.57;1.90;;;;;;;;;;6210778;23;20310;-91
2023/06/27 05:09:51;;;;;;;6.65;1.70;;;;;;;;;;6186220;23;20074;-94
2023/06/27 05:12:17;;;;;;;9.35;2.28;;;;;;;;;;6186682;23;20482;-93
2023/06/27 05:14:46;;;;;;;10.75;2.10;;;;;;;;;;6207833;23;20009;-93
2023/06/27 05:17:12;;;;;;;7.07;1.58;;;;;;;;;;6184412;23;20012;-92
2023/06/27 05:19:39;;;;;;;9.00;2.92;;;;;;;;;;6185435;23;20012;-94
2023/06/27 05:22:05;;;;;;;6.65;2.05;;;;;;;;;;6184052;23;20013;-93
2023/06/27 05:24:32;;;;;;;8.38;2.28;;;;;;;;;;6186221;23;20004;-93
2023/06/27 05:27:18;;;;;;;;;;;;;;;;;;;;;
2023/06/27 05:29:48;;;;;;;8.95;2.00;;;;;;;;;;6214682;23;20095;-93
2023/06/27 05:32:15;;;;;;;6.05;2.40;;;;;;;;;;6216641;23;20080;-92
2023/06/27 05:34:51;;;;;;;4.38;1.90;;;;;;;;;;6192579;23;20343;-92
2023/06/27 05:37:18;;;;;;;6.68;1.98;;;;;;;;;;6218257;23;20031;-93
2023/06/27 05:39:45;;;;;;;8.50;2.15;;;;;;;;;;6193277;23;20009;-92
2023/06/27 05:42:16;;;;;;;4.07;2.05;;;;;;;;;;6195068;23;20017;-92
2023/06/27 05:44:42;;;;;;;4.75;1.95;;;;;;;;;;6214911;23;20024;-92
2023/06/27 05:47:15;;;;;;;9.88;3.05;;;;;;;;;;6219452;23;20005;-92
2023/06/27 05:49:43;;;;;;;7.45;2.10;;;;;;;;;;6198179;23;20009;-92
2023/06/27 05:52:16;;;;;;;6.55;1.85;;;;;;;;;;6226499;23;20005;-91
2023/06/27 05:54:44;;;;;;;4.22;1.85;;;;;;;;;;6188830;23;20036;-92
2023/06/27 05:57:10;;;;;;;6.97;1.50;;;;;;;;;;6215231;23;20023;-92
2023/06/27 05:59:37;;;;;;;4.55;2.10;;;;;;;;;;6214115;23;20505;-92
2023/06/27 06:02:04;;;;;;;7.72;3.00;;;;;;;;;;6212597;23;20044;-92
2023/06/27 06:04:31;;;;;;;5.07;1.50;;;;;;;;;;6184912;23;20064;-93
2023/06/27 06:07:03;;;;;;;8.02;1.70;;;;;;;;;;6186810;23;20453;-93
2023/06/27 06:09:30;;;;;;;5.10;1.70;;;;;;;;;;6212682;23;20073;-92
2023/06/27 06:11:57;;;;;;;6.05;1.85;;;;;;;;;;6188332;23;20013;-91
2023/06/27 06:14:23;;;;;;;4.03;1.88;;;;;;;;;;6211146;23;20032;-91
2023/06/27 06:16:49;;;;;;;8.90;1.92;;;;;;;;;;6212439;23;20071;-92
2023/06/27 06:19:16;;;;;;;8.73;1.73;;;;;;;;;;6186762;23;20013;-91
2023/06/27 06:21:43;;;;;;;8.88;1.70;;;;;;;;;;6212505;23;20514;-92
2023/06/27 06:24:09;;;;;;;9.95;2.15;;;;;;;;;;6211853;23;20009;-92
2023/06/27 06:26:35;;;;;;;4.88;1.65;;;;;;;;;;6212327;23;20009;-91
2023/06/27 06:29:02;;;;;;;4.32;1.73;;;;;;;;;;6186173;23;20171;-91
2023/06/27 06:31:28;;;;;;;8.23;1.80;;;;;;;;;;6186401;23;20009;-92
2023/06/27 06:33:56;;;;;;;7.40;1.50;;;;;;;;;;6210465;23;20066;-92
2023/06/27 06:36:22;;;;;;;5.47;1.92;;;;;;;;;;6211966;23;20544;-93
2023/06/27 06:39:27;;;;;;;3.42;1.60;;;;;;;;;;4719790;27;8701076;-92
2023/06/27 06:41:53;;;;;;;5.82;1.35;;;;;;;;;;5005381;28;20061;-92
2023/06/27 06:44:19;;;;;;;7.47;1.65;;;;;;;;;;5003488;28;20030;-93
2023/06/27 06:46:45;;;;;;;5.78;1.58;;;;;;;;;;4989860;28;20077;-93
2023/06/27 06:49:12;;;;;;;8.10;1.83;;;;;;;;;;5002118;28;20026;-93
2023/06/27 06:51:39;;;;;;;7.95;1.70;;;;;;;;;;5003022;28;20030;-94
2023/06/27 06:54:06;;;;;;;4.85;1.58;;;;;;;;;;5001390;28;20034;-94
2023/06/27 06:56:32;;;;;;;9.25;1.90;;;;;;;;;;4991451;28;20030;-94
2023/06/27 06:58:58;;;;;;;4.68;1.42;;;;;;;;;;4988586;28;20116;-94
2023/06/27 07:01:24;;;;;;;7.13;1.63;;;;;;;;;;4999724;28;20094;-93
2023/06/27 07:03:51;;;;;;;7.50;1.50;;;;;;;;;;4988531;28;20037;-93
2023/06/27 07:06:17;;;;;;;10.55;1.63;;;;;;;;;;5001628;28;20438;-93
2023/06/27 07:08:43;;;;;;;5.40;1.35;;;;;;;;;;4987927;28;20041;-93
2023/06/27 07:11:10;;;;;;;8.23;1.65;;;;;;;;;;4988926;28;20030;-91
2023/06/27 07:13:39;;;;;;;7.95;2.00;;;;;;;;;;4991056;28;20022;-92
2023/06/27 07:16:05;;;;;;;5.32;1.42;;;;;;;;;;5001395;28;20093;-92
2023/06/27 07:18:32;;;;;;;9.68;1.60;;;;;;;;;;5007988;28;20041;-92
2023/06/27 07:20:58;;;;;;;7.30;1.13;;;;;;;;;;5006049;28;20030;-93
2023/06/27 07:23:24;;;;;;;4.13;1.30;;;;;;;;;;4987961;28;20042;-93
2023/06/27 07:25:50;;;;;;;5.22;1.52;;;;;;;;;;5011139;28;20034;-93
2023/06/27 07:28:17;;;;;;;8.32;1.48;;;;;;;;;;4997142;28;20037;-93
2023/06/27 07:30:53;;;;;;;4.38;1.63;;;;;;;;;;5013178;28;20026;-93
2023/06/27 07:33:19;;;;;;;3.58;1.65;;;;;;;;;;4992511;28;20027;-93
2023/06/27 07:35:48;;;;;;;6.78;1.52;;;;;;;;;;5019475;28;20034;-93
2023/06/27 07:38:16;;;;;;;4.47;1.10;;;;;;;;;;4997125;28;20064;-93
2023/06/27 07:40:43;;;;;;;12.13;1.75;;;;;;;;;;4986186;28;20105;-93
2023/06/27 07:43:09;;;;;;;13.57;1.33;;;;;;;;;;4988747;28;20053;-93
2023/06/27 07:45:35;;;;;;;8.43;1.80;;;;;;;;;;4989345;28;20498;-93
2023/06/27 07:48:08;;;;;;;8.70;1.25;;;;;;;;;;5004494;28;20081;-93
2023/06/27 07:50:34;;;;;;;6.63;1.70;;;;;;;;;;4976247;28;20041;-94
2023/06/27 07:53:00;;;;;;;5.25;1.30;;;;;;;;;;4977819;28;20042;-94
2023/06/27 07:55:26;;;;;;;4.97;1.10;;;;;;;;;;4972503;28;20082;-94
2023/06/27 07:57:53;;;;;;;10.50;1.60;;;;;;;;;;4990445;28;20403;-93
2023/06/27 08:00:20;;;;;;;4.55;1.40;;;;;;;;;;4975288;28;20030;-93
2023/06/27 08:02:47;;;;;;;6.68;1.27;;;;;;;;;;4976295;28;20552;-94
2023/06/27 08:05:13;;;;;;;4.38;1.40;;;;;;;;;;4977742;28;20031;-93
2023/06/27 08:07:39;;;;;;;3.25;1.08;;;;;;;;;;4977402;28;20053;-93
2023/06/27 08:10:08;;;;;;;3.47;1.15;;;;;;;;;;4986483;28;20110;-94
2023/06/27 08:12:34;;;;;;;3.67;1.15;;;;;;;;;;4991109;28;20034;-93
2023/06/27 08:15:00;;;;;;;7.90;1.40;;;;;;;;;;4983997;28;20034;-93
2023/06/27 08:17:26;;;;;;;3.55;1.30;;;;;;;;;;4973813;28;20092;-94
2023/06/27 08:19:53;;;;;;;4.28;1.40;;;;;;;;;;4975482;28;20390;-93
2023/06/27 08:22:19;;;;;;;5.22;1.17;;;;;;;;;;4977828;28;20069;-93
2023/06/27 08:24:45;;;;;;;8.48;1.13;;;;;;;;;;5003637;28;20027;-93
2023/06/27 08:27:11;;;;;;;5.75;1.40;;;;;;;;;;4987449;28;20120;-94
2023/06/27 08:29:37;;;;;;;1.75;1.20;;;;;;;;;;4976500;28;20026;-94
2023/06/27 08:32:04;;;;;;;3.65;1.67;;;;;;;;;;4990144;28;20038;-93
2023/06/27 08:34:33;;;;;;;3.55;1.10;;;;;;;;;;5000622;28;20027;-93
2023/06/27 08:36:59;;;;;;;7.47;0.88;;;;;;;;;;4990482;28;20644;-94
2023/06/27 08:39:26;;;;;;;14.82;1.50;;;;;;;;;;4974442;28;20078;-94
2023/06/27 08:41:52;;;;;;;6.95;1.35;;;;;;;;;;4973203;28;20041;-94
2023/06/27 08:44:18;;;;;;;6.35;1.38;;;;;;;;;;4974376;28;20652;-93
2023/06/27 08:46:48;;;;;;;6.25;1.15;;;;;;;;;;4990574;28;20446;-93
2023/06/27 08:49:20;;;;;;;2.25;1.20;;;;;;;;;;4989892;28;20097;-93
2023/06/27 08:51:50;;;;;;;7.78;1.45;;;;;;;;;;4988777;28;20034;-94
2023/06/27 08:54:32;;;;;;;3.58;1.05;;;;;;;;;;4990498;28;20434;-93
2023/06/27 08:57:07;;;;;;;3.45;1.13;;;;;;;;;;4990094;28;20030;-94
2023/06/27 08:59:35;;;;;;;7.75;1.05;;;;;;;;;;4972726;28;20161;-94
2023/06/27 09:02:03;;;;;;;40.47;7.43;;;;;;;;;;4985949;28;20395;-94
2023/06/27 09:04:32;;;;;;;4.70;1.33;;;;;;;;;;4989791;28;20018;-94
2023/06/27 09:06:59;;;;;;;4.95;1.27;;;;;;;;;;4988954;28;20342;-94
2023/06/27 09:09:25;;;;;;;6.38;1.55;;;;;;;;;;4976602;28;20509;-94
2023/06/27 09:11:51;;;;;;;7.68;2.00;;;;;;;;;;4991808;28;20498;-94
2023/06/27 09:14:21;;;;;;;3.38;1.20;;;;;;;;;;4988423;28;20031;-94
2023/06/27 09:17:14;;;;;;;5.32;1.35;;;;;;;;;;4992740;28;20121;-94
2023/06/27 09:19:43;;;;;;;2.50;1.50;;;;;;;;;;4980625;28;20041;-93
2023/06/27 09:22:10;;;;;;;3.08;1.05;;;;;;;;;;4976411;28;20051;-94
2023/06/27 09:24:40;;;;;;;5.15;1.50;;;;;;;;;;4987321;28;20174;-94
2023/06/27 09:27:25;;;;;;;2.20;1.05;;;;;;;;;;4977256;28;20042;-93
2023/06/27 09:29:51;;;;;;;4.85;1.05;;;;;;;;;;4996194;28;20030;-94
2023/06/27 09:32:31;;;;;;;4.68;1.42;;;;;;;;;;4974980;28;20038;-94
2023/06/27 09:35:03;;;;;;;7.85;1.77;;;;;;;;;;5004014;28;20034;-93
2023/06/27 09:37:31;;;;;;;8.27;1.42;;;;;;;;;;4992232;28;20095;-93
2023/06/27 09:39:58;;;;;;;5.28;1.20;;;;;;;;;;4974339;28;20049;-93
2023/06/27 09:42:34;;;;;;;6.18;1.05;;;;;;;;;;4993870;28;20026;-93
2023/06/27 09:45:16;;;;;;;3.85;1.95;;;;;;;;;;4995965;28;20505;-92
2023/06/27 09:47:52;;;;;;;2.45;1.25;;;;;;;;;;4997122;28;20026;-93
2023/06/27 09:50:25;;;;;;;3.15;1.30;;;;;;;;;;4993160;28;20631;-94
2023/06/27 09:52:55;;;;;;;4.38;1.58;;;;;;;;;;4996008;28;20030;-93
2023/06/27 09:55:21;;;;;;;6.68;1.42;;;;;;;;;;4984749;28;20438;-94
2023/06/27 09:57:48;;;;;;;6.97;1.60;;;;;;;;;;4980971;28;20167;-94
2023/06/27 10:00:15;;;;;;;2.25;1.00;;;;;;;;;;4995762;28;20037;-93
2023/06/27 10:02:44;;;;;;;4.63;1.48;;;;;;;;;;4981783;28;20116;-94
2023/06/27 10:05:10;;;;;;;5.43;1.40;;;;;;;;;;4977569;28;20505;-94
2023/06/27 10:07:36;;;;;;;5.28;1.27;;;;;;;;;;4972500;28;20029;-94
2023/06/27 10:10:25;;;;;;;12.02;2.13;;;;;;;;;;4985834;28;20041;-94
2023/06/27 10:12:52;;;;;;;10.23;1.40;;;;;;;;;;4984728;28;20253;-94
2023/06/27 10:15:21;;;;;;;4.32;1.30;;;;;;;;;;4981444;28;20319;-94
2023/06/27 10:17:48;;;;;;;14.80;1.92;;;;;;;;;;5011373;28;20025;-94
2023/06/27 10:20:14;;;;;;;3.92;1.40;;;;;;;;;;4973158;28;20050;-93
2023/06/27 10:22:45;;;;;;;6.97;1.52;;;;;;;;;;4984610;28;20029;-94
2023/06/27 10:25:22;;;;;;;8.75;1.48;;;;;;;;;;5002435;28;20041;-94
2023/06/27 10:27:49;;;;;;;5.72;1.30;;;;;;;;;;4982032;28;20025;-94
2023/06/27 10:30:18;;;;;;;9.82;1.73;;;;;;;;;;4993055;28;20528;-93
2023/06/27 10:32:45;;;;;;;6.43;1.30;;;;;;;;;;4992385;28;20464;-94
2023/06/27 10:38:09;;;;;;;4.32;1.38;;;;;;;;;;4948171;28;20107;-94
2023/06/27 10:41:11;;;;;;;5.63;1.25;;;;;;;;;;4938357;28;20090;-94
2023/06/27 10:43:48;;;;;;;2.90;1.40;;;;;;;;;;4929277;29;20068;-94
2023/06/27 10:46:21;;;;;;;5.07;1.42;;;;;;;;;;4910124;29;20040;-93
2023/06/27 10:48:59;;;;;;;3.95;1.58;;;;;;;;;;4931083;29;20031;-93
2023/06/27 10:51:35;;;;;;;4.13;0.93;;;;;;;;;;4936444;29;20177;-93
2023/06/27 10:54:07;;;;;;;8.18;1.55;;;;;;;;;;4936339;29;20031;-94
2023/06/27 10:56:37;;;;;;;9.88;1.70;;;;;;;;;;4932794;29;20488;-93
2023/06/27 10:59:10;;;;;;;8.25;1.30;;;;;;;;;;4959931;28;20129;-92
2023/06/27 11:01:37;;;;;;;5.28;1.30;;;;;;;;;;4970179;28;20085;-91
2023/06/27 11:04:24;;;;;;;6.82;1.50;;;;;;;;;;4983801;28;20465;-91
2023/06/27 11:06:57;;;;;;;5.68;1.33;;;;;;;;;;4969496;28;20065;-91
2023/06/27 11:09:23;;;;;;;8.15;1.20;;;;;;;;;;4975599;28;20085;-91
2023/06/27 11:12:08;;;;;;;5.15;1.90;;;;;;;;;;4971452;28;20061;-91
2023/06/27 11:14:40;;;;;;;4.72;1.20;;;;;;;;;;4981236;28;20063;-91
2023/06/27 11:17:07;;;;;;;6.60;1.35;;;;;;;;;;4970370;28;20037;-93
2023/06/27 11:19:34;;;;;;;3.58;1.05;;;;;;;;;;4986831;28;20027;-92
2023/06/27 11:22:01;;;;;;;8.65;1.17;;;;;;;;;;4956877;28;20072;-92
2023/06/27 11:24:37;;;;;;;8.50;1.40;;;;;;;;;;4959096;28;20482;-92
2023/06/27 11:27:06;;;;;;;7.35;1.63;;;;;;;;;;4969945;28;20041;-92
2023/06/27 11:29:33;;;;;;;6.43;1.55;;;;;;;;;;4993818;28;20026;-92
2023/06/27 11:32:19;;;;;;;;;;;;;;;;;;4973395;28;20035;-92
2023/06/27 11:34:46;;;;;;;14.35;1.20;;;;;;;;;;4984419;28;19914;-92
2023/06/27 11:37:12;;;;;;;2.53;0.95;;;;;;;;;;4975970;28;20034;-93
2023/06/27 11:39:39;;;;;;;1.98;1.08;;;;;;;;;;4999010;28;20114;-92
2023/06/27 11:42:05;;;;;;;3.95;1.80;;;;;;;;;;4944959;28;20387;-92
2023/06/27 11:44:32;;;;;;;5.85;1.10;;;;;;;;;;4946630;28;20027;-92
2023/06/27 11:47:00;;;;;;;4.40;1.10;;;;;;;;;;4960726;28;20027;-92
2023/06/27 11:49:31;;;;;;;6.00;1.45;;;;;;;;;;4944698;28;20034;-91
2023/06/27 11:51:58;;;;;;;3.80;0.85;;;;;;;;;;4944193;28;20058;-92
2023/06/27 11:54:24;;;;;;;4.13;1.48;;;;;;;;;;4958823;28;20035;-92
2023/06/27 11:56:50;;;;;;;3.97;1.25;;;;;;;;;;4956809;28;20030;-93
2023/06/27 11:59:17;;;;;;;3.42;1.00;;;;;;;;;;4940183;28;20494;-93
2023/06/27 12:01:46;;;;;;;7.10;1.48;;;;;;;;;;4958694;28;20479;-92
2023/06/27 12:04:16;;;;;;;7.88;1.00;;;;;;;;;;4935147;28;21549;-93
2023/06/27 12:06:43;;;;;;;10.27;2.00;;;;;;;;;;4955105;28;20042;-92
2023/06/27 12:09:24;;;;;;;7.13;1.58;;;;;;;;;;4959399;28;20391;-93
2023/06/27 12:12:03;;;;;;;3.17;1.33;;;;;;;;;;4956198;28;20502;-93
2023/06/27 12:14:31;;;;;;;6.95;1.48;;;;;;;;;;4956723;28;20511;-92
2023/06/27 12:17:07;;;;;;;5.13;1.33;;;;;;;;;;4946393;28;20028;-93
2023/06/27 12:19:33;;;;;;;5.43;1.08;;;;;;;;;;4954954;28;20109;-93
2023/06/27 12:21:59;;;;;;;6.07;1.00;;;;;;;;;;4962529;28;20509;-93
2023/06/27 12:24:25;;;;;;;3.95;1.05;;;;;;;;;;4936528;29;20049;-93
2023/06/27 12:26:54;;;;;;;5.97;2.30;;;;;;;;;;4966929;28;20046;-92
2023/06/27 12:29:21;;;;;;;3.60;1.02;;;;;;;;;;4942531;28;20039;-93
2023/06/27 12:32:07;;;;;;;3.90;1.05;;;;;;;;;;4945959;28;20046;-93
2023/06/27 12:34:37;;;;;;;9.48;1.58;;;;;;;;;;4956239;28;20050;-92
2023/06/27 12:37:03;;;;;;;5.90;1.63;;;;;;;;;;4960120;28;20040;-93
2023/06/27 12:39:37;;;;;;;5.28;1.70;;;;;;;;;;4965177;28;20047;-93
2023/06/27 12:42:03;;;;;;;6.97;1.48;;;;;;;;;;4957872;28;20030;-93
2023/06/27 12:44:30;;;;;;;1.88;1.23;;;;;;;;;;4968445;28;20049;-93
2023/06/27 12:47:03;;;;;;;4.50;1.17;;;;;;;;;;4962811;28;20042;-92
2023/06/27 12:49:29;;;;;;;4.65;1.40;;;;;;;;;;4984513;28;20026;-92
2023/06/27 12:51:55;;;;;;;9.45;1.63;;;;;;;;;;4957363;28;20039;-93
2023/06/27 12:54:21;;;;;;;4.00;1.30;;;;;;;;;;4961905;28;20031;-93
2023/06/27 12:56:51;;;;;;;4.60;1.20;;;;;;;;;;4955135;28;20080;-93
2023/06/27 12:59:26;;;;;;;4.60;1.73;;;;;;;;;;4963033;28;20066;-94
2023/06/27 13:01:55;;;;;;;5.07;1.13;;;;;;;;;;4975437;28;20053;-94
2023/06/27 13:04:24;;;;;;;3.20;1.17;;;;;;;;;;4991185;28;20031;-92
2023/06/27 13:06:50;;;;;;;2.45;1.10;;;;;;;;;;4960031;28;20097;-93
2023/06/27 13:09:16;;;;;;;4.82;1.25;;;;;;;;;;4977161;28;20038;-92
2023/06/27 13:11:42;;;;;;;5.03;1.00;;;;;;;;;;4960850;28;20038;-93
2023/06/27 13:14:09;;;;;;;5.72;1.20;;;;;;;;;;4988393;28;20034;-93
2023/06/27 13:16:38;;;;;;;2.75;1.13;;;;;;;;;;4964611;28;20042;-92
2023/06/27 13:19:07;;;;;;;5.88;1.48;;;;;;;;;;4960517;28;20065;-93
2023/06/27 13:21:37;;;;;;;6.78;1.40;;;;;;;;;;4957378;28;20039;-94
2023/06/27 13:24:11;;;;;;;5.05;1.08;;;;;;;;;;4978717;28;20034;-92
2023/06/27 13:26:38;;;;;;;3.55;1.08;;;;;;;;;;4965217;28;20049;-92
2023/06/27 13:29:09;;;;;;;4.07;1.38;;;;;;;;;;4982882;28;20203;-93
2023/06/27 13:31:48;;;;;;;;;;;;;;;;;;;;;
2023/06/27 13:34:15;;;;;;;2.88;1.08;;;;;;;;;;4992981;28;21450;-92
2023/06/27 13:36:41;;;;;;;3.92;1.27;;;;;;;;;;4980978;28;20038;-92
2023/06/27 13:39:15;;;;;;;6.38;1.08;;;;;;;;;;4958692;28;20038;-93
2023/06/27 13:41:42;;;;;;;10.60;1.27;;;;;;;;;;4964348;28;20026;-93
2023/06/27 13:44:11;;;;;;;7.72;1.20;;;;;;;;;;4974918;28;20467;-92
2023/06/27 13:46:38;;;;;;;4.68;1.42;;;;;;;;;;4951823;28;20451;-92
2023/06/27 13:49:09;;;;;;;9.05;1.08;;;;;;;;;;4971843;28;20035;-93
2023/06/27 13:51:36;;;;;;;6.97;1.50;;;;;;;;;;4937192;28;20495;-93
2023/06/27 13:54:02;;;;;;;3.33;1.20;;;;;;;;;;4974972;28;20038;-93
2023/06/27 13:56:28;;;;;;;3.15;1.48;;;;;;;;;;4958406;28;20474;-91
2023/06/27 13:58:55;;;;;;;5.50;1.48;;;;;;;;;;4948968;28;20509;-92
2023/06/27 14:01:21;;;;;;;4.35;1.42;;;;;;;;;;4951740;28;20490;-92
2023/06/27 14:04:11;;;;;;;3.17;1.48;;;;;;;;;;4960070;28;20027;-93
2023/06/27 14:06:38;;;;;;;4.40;1.67;;;;;;;;;;4917477;29;20045;-93
2023/06/27 14:09:04;;;;;;;5.50;1.08;;;;;;;;;;4955504;28;20452;-92
2023/06/27 14:11:30;;;;;;;7.47;1.95;;;;;;;;;;4961176;28;20026;-93
2023/06/27 14:13:59;;;;;;;3.58;1.30;;;;;;;;;;4940884;28;20038;-93
2023/06/27 14:16:25;;;;;;;5.28;1.83;;;;;;;;;;4943139;28;20608;-92
2023/06/27 14:18:53;;;;;;;3.72;2.00;;;;;;;;;;4971472;28;20483;-93
2023/06/27 14:21:21;;;;;;;2.63;1.00;;;;;;;;;;4962148;28;20103;-92
2023/06/27 14:23:55;;;;;;;8.35;1.58;;;;;;;;;;4962605;28;20443;-92
2023/06/27 14:26:21;;;;;;;4.25;0.93;;;;;;;;;;4931681;28;20027;-93
2023/06/27 14:28:48;;;;;;;4.65;1.73;;;;;;;;;;4960944;28;20061;-93
2023/06/27 14:31:14;;;;;;;5.28;1.00;;;;;;;;;;4939555;28;20483;-93
2023/06/27 14:33:41;;;;;;;5.93;1.10;;;;;;;;;;4958142;28;20046;-93
2023/06/27 14:36:11;;;;;;;15.93;1.50;;;;;;;;;;4964684;28;20121;-93
2023/06/27 14:38:44;;;;;;;6.70;1.38;;;;;;;;;;4965318;28;20051;-92
2023/06/27 14:41:17;;;;;;;6.05;1.15;;;;;;;;;;4971897;28;20049;-94
2023/06/27 14:43:43;;;;;;;4.47;1.15;;;;;;;;;;4958832;28;20026;-92
2023/06/27 14:46:09;;;;;;;5.20;1.63;;;;;;;;;;4957665;28;20038;-93
2023/06/27 14:48:41;;;;;;;4.85;1.23;;;;;;;;;;4953018;28;20037;-92
2023/06/27 14:51:07;;;;;;;7.22;1.40;;;;;;;;;;4962084;28;20062;-93
2023/06/27 14:53:34;;;;;;;2.50;1.20;;;;;;;;;;4963064;28;21031;-93
2023/06/27 14:56:00;;;;;;;5.18;1.30;;;;;;;;;;4962427;28;20038;-93
2023/06/27 14:58:26;;;;;;;1.92;0.88;;;;;;;;;;4990424;28;20034;-93
2023/06/27 15:00:52;;;;;;;7.03;1.60;;;;;;;;;;4957044;28;20875;-93
2023/06/27 15:03:21;;;;;;;5.32;1.35;;;;;;;;;;4963042;28;20466;-93